sensor_id;sensor_type;location;lat;lon;timestamp;pressure;altitude;pressure_sealevel;temperature;humidity
11830;BME280;5972;42.134;24.718;2023-12-07T00:01:34;99398.34;;;6.36;100.00
11830;BME280;5972;42.134;24.718;2023-12-07T00:04:02;99430.59;;;6.44;100.00
11830;BME280;5972;42.134;24.718;2023-12-07T00:06:29;99423.78;;;6.47;100.00
11830;BME280;5972;42.134;24.718;2023-12-07T00:08:56;99430.28;;;6.46;100.00
11830;BME280;5972;42.134;24.718;2023-12-07T00:11:24;99419.06;;;6.35;100.00
11830;BME280;5972;42.134;24.718;2023-12-07T00:13:51;99427.91;;;6.36;100.00
11830;BME280;5972;42.134;24.718;2023-12-07T00:16:18;99429.34;;;6.33;100.00
11830;BME280;5972;42.134;24.718;2023-12-07T00:18:43;99425.19;;;6.36;100.00
11830;BME280;5972;42.134;24.718;2023-12-07T00:21:12;99422.69;;;6.31;100.00
11830;BME280;5972;42.134;24.718;2023-12-07T00:23:39;99404.03;;;6.25;100.00
11830;BME280;5972;42.134;24.718;2023-12-07T00:26:06;99394.09;;;6.26;100.00
11830;BME280;5972;42.134;24.718;2023-12-07T00:28:33;99421.41;;;6.37;100.00
11830;BME280;5972;42.134;24.718;2023-12-07T00:30:59;99393.13;;;6.13;100.00
11830;BME280;5972;42.134;24.718;2023-12-07T00:33:27;99425.53;;;6.25;100.00
11830;BME280;5972;42.134;24.718;2023-12-07T00:35:54;99430.28;;;6.20;100.00
11830;BME280;5972;42.134;24.718;2023-12-07T00:38:22;99422.69;;;6.39;100.00
11830;BME280;5972;42.134;24.718;2023-12-07T00:40:49;99426.16;;;6.40;100.00
11830;BME280;5972;42.134;24.718;2023-12-07T00:43:16;99428.53;;;6.33;100.00
11830;BME280;5972;42.134;24.718;2023-12-07T00:45:43;99427.13;;;6.35;100.00
11830;BME280;5972;42.134;24.718;2023-12-07T00:48:10;99424.91;;;6.29;100.00
11830;BME280;5972;42.134;24.718;2023-12-07T00:50:37;99422.38;;;6.41;100.00
11830;BME280;5972;42.134;24.718;2023-12-07T00:53:04;99434.06;;;6.36;100.00
11830;BME280;5972;42.134;24.718;2023-12-07T00:55:33;99431.06;;;6.38;100.00
11830;BME280;5972;42.134;24.718;2023-12-07T00:58:00;99386.53;;;6.11;100.00
11830;BME280;5972;42.134;24.718;2023-12-07T01:00:27;99425.53;;;6.43;100.00
11830;BME280;5972;42.134;24.718;2023-12-07T01:02:54;99389.34;;;6.14;100.00
11830;BME280;5972;42.134;24.718;2023-12-07T01:05:21;99430.72;;;6.48;100.00
11830;BME280;5972;42.134;24.718;2023-12-07T01:07:48;99418.25;;;6.52;100.00
11830;BME280;5972;42.134;24.718;2023-12-07T01:10:16;99417.78;;;6.50;100.00
11830;BME280;5972;42.134;24.718;2023-12-07T01:12:44;99417.91;;;6.53;100.00
11830;BME280;5972;42.134;24.718;2023-12-07T01:15:11;99389.66;;;6.39;100.00
11830;BME280;5972;42.134;24.718;2023-12-07T01:17:38;99416.34;;;6.61;100.00
11830;BME280;5972;42.134;24.718;2023-12-07T01:20:06;99393.75;;;6.45;100.00
11830;BME280;5972;42.134;24.718;2023-12-07T01:22:38;99413.34;;;6.62;100.00
11830;BME280;5972;42.134;24.718;2023-12-07T01:25:06;99417.44;;;6.60;100.00
11830;BME280;5972;42.134;24.718;2023-12-07T01:27:33;99418.72;;;6.62;100.00
11830;BME280;5972;42.134;24.718;2023-12-07T01:30:02;99379.69;;;6.39;100.00
11830;BME280;5972;42.134;24.718;2023-12-07T01:32:29;99424.88;;;6.63;100.00
11830;BME280;5972;42.134;24.718;2023-12-07T01:34:56;99413.34;;;6.62;100.00
11830;BME280;5972;42.134;24.718;2023-12-07T01:37:23;99402.41;;;6.59;100.00
11830;BME280;5972;42.134;24.718;2023-12-07T01:43:13;99388.69;;;6.43;100.00
11830;BME280;5972;42.134;24.718;2023-12-07T01:45:41;99411.91;;;6.56;100.00
11830;BME280;5972;42.134;24.718;2023-12-07T01:48:09;99410.31;;;6.64;100.00
11830;BME280;5972;42.134;24.718;2023-12-07T01:50:36;99410.47;;;6.67;100.00
11830;BME280;5972;42.134;24.718;2023-12-07T01:53:04;99400.53;;;6.42;100.00
11830;BME280;5972;42.134;24.718;2023-12-07T01:55:32;99406.41;;;6.27;100.00
11830;BME280;5972;42.134;24.718;2023-12-07T01:57:59;99412.56;;;6.45;100.00
11830;BME280;5972;42.134;24.718;2023-12-07T02:00:26;99402.16;;;6.35;100.00
11830;BME280;5972;42.134;24.718;2023-12-07T02:02:55;99386.19;;;6.30;100.00
11830;BME280;5972;42.134;24.718;2023-12-07T02:05:22;99418.53;;;6.59;100.00
11830;BME280;5972;42.134;24.718;2023-12-07T02:07:51;99414.13;;;6.54;100.00
11830;BME280;5972;42.134;24.718;2023-12-07T02:10:19;99409.09;;;6.44;100.00
11830;BME280;5972;42.134;24.718;2023-12-07T02:12:47;99413.00;;;6.47;100.00
11830;BME280;5972;42.134;24.718;2023-12-07T02:15:14;99414.63;;;6.39;100.00
11830;BME280;5972;42.134;24.718;2023-12-07T02:17:48;99410.50;;;6.50;100.00
11830;BME280;5972;42.134;24.718;2023-12-07T02:20:23;99421.25;;;6.50;100.00
11830;BME280;5972;42.134;24.718;2023-12-07T02:22:59;99412.25;;;6.46;100.00
11830;BME280;5972;42.134;24.718;2023-12-07T02:25:32;99414.78;;;6.43;100.00
11830;BME280;5972;42.134;24.718;2023-12-07T02:28:03;99409.84;;;6.62;100.00
11830;BME280;5972;42.134;24.718;2023-12-07T02:30:30;99400.50;;;6.59;100.00
11830;BME280;5972;42.134;24.718;2023-12-07T02:32:57;99404.66;;;6.48;100.00
11830;BME280;5972;42.134;24.718;2023-12-07T02:35:25;99410.63;;;6.62;100.00
11830;BME280;5972;42.134;24.718;2023-12-07T02:37:53;99386.66;;;6.14;100.00
11830;BME280;5972;42.134;24.718;2023-12-07T02:40:22;99409.25;;;6.31;100.00
11830;BME280;5972;42.134;24.718;2023-12-07T02:42:51;99398.03;;;6.29;100.00
11830;BME280;5972;42.134;24.718;2023-12-07T02:45:20;99416.34;;;6.44;100.00
11830;BME280;5972;42.134;24.718;2023-12-07T02:47:47;99410.81;;;6.49;100.00
11830;BME280;5972;42.134;24.718;2023-12-07T02:50:14;99402.88;;;6.52;100.00
11830;BME280;5972;42.134;24.718;2023-12-07T02:52:42;99413.19;;;6.42;100.00
11830;BME280;5972;42.134;24.718;2023-12-07T02:55:09;99393.28;;;6.25;100.00
11830;BME280;5972;42.134;24.718;2023-12-07T02:57:36;99414.31;;;6.32;100.00
11830;BME280;5972;42.134;24.718;2023-12-07T03:00:04;99402.16;;;6.35;100.00
11830;BME280;5972;42.134;24.718;2023-12-07T03:02:34;99384.59;;;6.37;100.00
11830;BME280;5972;42.134;24.718;2023-12-07T03:05:02;99380.16;;;6.33;100.00
11830;BME280;5972;42.134;24.718;2023-12-07T03:07:29;99410.81;;;6.49;100.00
11830;BME280;5972;42.134;24.718;2023-12-07T03:09:56;99410.81;;;6.49;100.00
11830;BME280;5972;42.134;24.718;2023-12-07T03:12:23;99385.22;;;6.34;100.00
11830;BME280;5972;42.134;24.718;2023-12-07T03:14:50;99419.81;;;6.61;100.00
11830;BME280;5972;42.134;24.718;2023-12-07T03:17:20;99414.94;;;6.46;100.00
11830;BME280;5972;42.134;24.718;2023-12-07T03:19:49;99396.78;;;6.35;100.00
11830;BME280;5972;42.134;24.718;2023-12-07T03:22:16;99424.09;;;6.45;100.00
11830;BME280;5972;42.134;24.718;2023-12-07T03:24:46;99414.31;;;6.32;100.00
11830;BME280;5972;42.134;24.718;2023-12-07T03:27:13;99406.88;;;6.20;100.00
11830;BME280;5972;42.134;24.718;2023-12-07T03:29:40;99420.34;;;6.29;100.00
11830;BME280;5972;42.134;24.718;2023-12-07T03:32:07;99412.13;;;6.17;100.00
11830;BME280;5972;42.134;24.718;2023-12-07T03:34:34;99408.31;;;6.09;100.00
11830;BME280;5972;42.134;24.718;2023-12-07T03:37:02;99411.00;;;6.01;100.00
11830;BME280;5972;42.134;24.718;2023-12-07T03:39:29;99416.22;;;6.14;100.00
11830;BME280;5972;42.134;24.718;2023-12-07T03:41:57;99403.72;;;6.10;100.00
11830;BME280;5972;42.134;24.718;2023-12-07T03:44:25;99414.16;;;6.20;100.00
11830;BME280;5972;42.134;24.718;2023-12-07T03:46:52;99405.94;;;6.08;100.00
11830;BME280;5972;42.134;24.718;2023-12-07T03:49:19;99393.47;;;6.12;100.00
11830;BME280;5972;42.134;24.718;2023-12-07T03:51:46;99406.56;;;6.13;100.00
11830;BME280;5972;42.134;24.718;2023-12-07T03:54:14;99406.44;;;6.10;100.00
11830;BME280;5972;42.134;24.718;2023-12-07T03:56:41;99407.69;;;5.95;100.00
11830;BME280;5972;42.134;24.718;2023-12-07T03:59:08;99377.94;;;5.66;100.00
11830;BME280;5972;42.134;24.718;2023-12-07T04:01:35;99406.06;;;5.68;100.00
11830;BME280;5972;42.134;24.718;2023-12-07T04:04:02;99385.81;;;5.54;100.00
11830;BME280;5972;42.134;24.718;2023-12-07T04:06:30;99415.06;;;5.81;100.00
11830;BME280;5972;42.134;24.718;2023-12-07T04:08:57;99400.22;;;5.75;100.00
11830;BME280;5972;42.134;24.718;2023-12-07T04:11:25;99396.09;;;5.69;100.00
11830;BME280;5972;42.134;24.718;2023-12-07T04:13:52;99406.22;;;5.80;100.00
11830;BME280;5972;42.134;24.718;2023-12-07T04:16:19;99380.63;;;5.57;100.00
11830;BME280;5972;42.134;24.718;2023-12-07T04:18:46;99412.06;;;5.74;100.00
11830;BME280;5972;42.134;24.718;2023-12-07T04:21:13;99411.44;;;5.68;100.00
11830;BME280;5972;42.134;24.718;2023-12-07T04:23:40;99392.78;;;5.55;100.00
11830;BME280;5972;42.134;24.718;2023-12-07T04:26:07;99407.16;;;5.67;100.00
11830;BME280;5972;42.134;24.718;2023-12-07T04:28:36;99400.19;;;5.58;100.00
11830;BME280;5972;42.134;24.718;2023-12-07T04:31:03;99383.59;;;5.47;100.00
11830;BME280;5972;42.134;24.718;2023-12-07T04:33:30;99393.38;;;5.43;100.00
11830;BME280;5972;42.134;24.718;2023-12-07T04:35:57;99418.22;;;5.57;100.00
11830;BME280;5972;42.134;24.718;2023-12-07T04:38:24;99418.50;;;5.56;100.00
11830;BME280;5972;42.134;24.718;2023-12-07T04:40:51;99417.41;;;5.57;100.00
11830;BME280;5972;42.134;24.718;2023-12-07T04:43:18;99415.19;;;5.50;100.00
11830;BME280;5972;42.134;24.718;2023-12-07T04:45:47;99383.63;;;5.08;100.00
11830;BME280;5972;42.134;24.718;2023-12-07T04:48:14;99402.97;;;5.27;100.00
11830;BME280;5972;42.134;24.718;2023-12-07T04:50:41;99413.09;;;5.38;100.00
11830;BME280;5972;42.134;24.718;2023-12-07T04:53:07;99426.47;;;5.30;100.00
11830;BME280;5972;42.134;24.718;2023-12-07T04:55:35;99416.34;;;5.18;100.00
11830;BME280;5972;42.134;24.718;2023-12-07T04:58:02;99433.09;;;5.24;100.00
11830;BME280;5972;42.134;24.718;2023-12-07T05:00:29;99426.28;;;5.18;100.00
11830;BME280;5972;42.134;24.718;2023-12-07T05:03:00;99425.31;;;5.14;100.00
11830;BME280;5972;42.134;24.718;2023-12-07T05:05:28;99433.78;;;5.07;100.00
11830;BME280;5972;42.134;24.718;2023-12-07T05:07:55;99439.34;;;5.11;100.00
11830;BME280;5972;42.134;24.718;2023-12-07T05:10:22;99429.38;;;5.02;100.00
11830;BME280;5972;42.134;24.718;2023-12-07T05:12:49;99426.69;;;5.02;100.00
11830;BME280;5972;42.134;24.718;2023-12-07T05:15:18;99439.16;;;5.07;100.00
11830;BME280;5972;42.134;24.718;2023-12-07T05:17:45;99344.53;;;4.36;100.00
11830;BME280;5972;42.134;24.718;2023-12-07T05:20:13;99447.69;;;5.09;100.00
11830;BME280;5972;42.134;24.718;2023-12-07T05:22:40;99450.50;;;5.04;100.00
11830;BME280;5972;42.134;24.718;2023-12-07T05:25:08;99450.69;;;5.08;100.00
11830;BME280;5972;42.134;24.718;2023-12-07T05:27:35;99454.94;;;5.09;100.00
11830;BME280;5972;42.134;24.718;2023-12-07T05:30:03;99411.94;;;4.83;100.00
11830;BME280;5972;42.134;24.718;2023-12-07T05:32:30;99469.31;;;5.13;100.00
11830;BME280;5972;42.134;24.718;2023-12-07T05:34:59;99420.63;;;4.88;100.00
11830;BME280;5972;42.134;24.718;2023-12-07T05:37:27;99483.72;;;5.17;100.00
11830;BME280;5972;42.134;24.718;2023-12-07T05:39:54;99436.94;;;5.00;100.00
11830;BME280;5972;42.134;24.718;2023-12-07T05:42:21;99478.72;;;5.24;100.00
11830;BME280;5972;42.134;24.718;2023-12-07T05:44:48;99481.84;;;5.26;100.00
11830;BME280;5972;42.134;24.718;2023-12-07T05:47:15;99484.66;;;5.21;100.00
11830;BME280;5972;42.134;24.718;2023-12-07T05:49:42;99486.56;;;5.20;100.00
11830;BME280;5972;42.134;24.718;2023-12-07T05:52:09;99497.00;;;5.30;100.00
11830;BME280;5972;42.134;24.718;2023-12-07T05:54:39;99484.53;;;5.26;100.00
11830;BME280;5972;42.134;24.718;2023-12-07T05:57:07;99503.16;;;5.31;100.00
11830;BME280;5972;42.134;24.718;2023-12-07T05:59:36;99491.47;;;5.27;100.00
11830;BME280;5972;42.134;24.718;2023-12-07T06:02:03;99504.91;;;5.27;100.00
11830;BME280;5972;42.134;24.718;2023-12-07T06:04:31;99501.28;;;5.31;100.00
11830;BME280;5972;42.134;24.718;2023-12-07T06:06:57;99502.72;;;5.37;100.00
11830;BME280;5972;42.134;24.718;2023-12-07T06:09:24;99501.47;;;5.35;100.00
11830;BME280;5972;42.134;24.718;2023-12-07T06:11:53;99502.88;;;5.32;100.00
11830;BME280;5972;42.134;24.718;2023-12-07T06:14:20;99479.75;;;5.14;100.00
11830;BME280;5972;42.134;24.718;2023-12-07T06:16:48;99487.22;;;5.26;100.00
11830;BME280;5972;42.134;24.718;2023-12-07T06:19:15;99506.69;;;5.40;100.00
11830;BME280;5972;42.134;24.718;2023-12-07T06:21:43;99493.28;;;5.40;100.00
11830;BME280;5972;42.134;24.718;2023-12-07T06:24:10;99503.59;;;5.55;100.00
11830;BME280;5972;42.134;24.718;2023-12-07T06:26:37;99506.44;;;5.59;100.00
11830;BME280;5972;42.134;24.718;2023-12-07T06:29:05;99478.31;;;5.48;100.00
11830;BME280;5972;42.134;24.718;2023-12-07T06:31:33;99489.38;;;5.55;100.00
11830;BME280;5972;42.134;24.718;2023-12-07T06:34:00;99515.50;;;5.80;100.00
11830;BME280;5972;42.134;24.718;2023-12-07T06:36:28;99502.88;;;5.80;100.00
11830;BME280;5972;42.134;24.718;2023-12-07T06:38:55;99515.72;;;5.92;100.00
11830;BME280;5972;42.134;24.718;2023-12-07T06:41:22;99498.50;;;5.93;100.00
11830;BME280;5972;42.134;24.718;2023-12-07T06:43:49;99514.34;;;6.12;100.00
11830;BME280;5972;42.134;24.718;2023-12-07T06:46:18;99508.03;;;6.16;100.00
11830;BME280;5972;42.134;24.718;2023-12-07T06:48:45;99516.72;;;6.22;100.00
11830;BME280;5972;42.134;24.718;2023-12-07T06:51:12;99507.88;;;6.30;100.00
11830;BME280;5972;42.134;24.718;2023-12-07T06:53:39;99510.72;;;6.42;100.00
11830;BME280;5972;42.134;24.718;2023-12-07T06:56:07;99514.53;;;6.50;100.00
11830;BME280;5972;42.134;24.718;2023-12-07T06:58:35;99523.22;;;6.38;100.00
11830;BME280;5972;42.134;24.718;2023-12-07T07:01:02;99508.03;;;6.42;100.00
11830;BME280;5972;42.134;24.718;2023-12-07T07:03:30;99518.66;;;6.56;100.00
11830;BME280;5972;42.134;24.718;2023-12-07T07:05:57;99513.59;;;6.63;100.00
11830;BME280;5972;42.134;24.718;2023-12-07T07:08:26;99493.50;;;6.52;100.00
11830;BME280;5972;42.134;24.718;2023-12-07T07:10:55;99485.13;;;6.53;100.00
11830;BME280;5972;42.134;24.718;2023-12-07T07:13:22;99521.00;;;6.83;100.00
11830;BME280;5972;42.134;24.718;2023-12-07T07:15:49;99524.31;;;6.89;100.00
11830;BME280;5972;42.134;24.718;2023-12-07T07:18:21;99475.00;;;6.67;100.00
11830;BME280;5972;42.134;24.718;2023-12-07T07:20:52;99530.47;;;7.06;100.00
11830;BME280;5972;42.134;24.718;2023-12-07T07:23:19;99496.91;;;7.04;100.00
11830;BME280;5972;42.134;24.718;2023-12-07T07:25:46;99502.72;;;7.15;100.00
11830;BME280;5972;42.134;24.718;2023-12-07T07:28:13;99523.16;;;7.62;100.00
11830;BME280;5972;42.134;24.718;2023-12-07T07:30:43;99491.53;;;7.42;100.00
11830;BME280;5972;42.134;24.718;2023-12-07T07:33:10;99529.88;;;7.77;100.00
11830;BME280;5972;42.134;24.718;2023-12-07T07:35:40;99521.16;;;7.80;100.00
11830;BME280;5972;42.134;24.718;2023-12-07T07:38:11;99537.78;;;8.11;100.00
11830;BME280;5972;42.134;24.718;2023-12-07T07:40:39;99539.53;;;8.37;100.00
11830;BME280;5972;42.134;24.718;2023-12-07T07:43:07;99545.66;;;8.66;100.00
11830;BME280;5972;42.134;24.718;2023-12-07T07:45:36;99553.53;;;8.71;100.00
11830;BME280;5972;42.134;24.718;2023-12-07T07:48:05;99525.53;;;8.43;100.00
11830;BME280;5972;42.134;24.718;2023-12-07T07:50:34;99554.19;;;8.48;100.00
11830;BME280;5972;42.134;24.718;2023-12-07T07:53:04;99551.69;;;8.43;100.00
11830;BME280;5972;42.134;24.718;2023-12-07T07:55:40;99550.16;;;8.62;100.00
11830;BME280;5972;42.134;24.718;2023-12-07T07:58:19;99548.75;;;8.77;100.00
11830;BME280;5972;42.134;24.718;2023-12-07T08:00:48;99548.59;;;8.94;100.00
11830;BME280;5972;42.134;24.718;2023-12-07T08:03:22;99549.31;;;8.83;100.00
11830;BME280;5972;42.134;24.718;2023-12-07T08:05:50;99564.09;;;9.18;100.00
11830;BME280;5972;42.134;24.718;2023-12-07T08:08:28;99489.69;;;8.96;100.00
11830;BME280;5972;42.134;24.718;2023-12-07T08:11:03;99409.59;;;8.22;100.00
11830;BME280;5972;42.134;24.718;2023-12-07T08:13:38;99500.56;;;8.88;100.00
11830;BME280;5972;42.134;24.718;2023-12-07T08:16:24;99563.13;;;9.35;100.00
11830;BME280;5972;42.134;24.718;2023-12-07T08:19:04;99421.63;;;8.25;100.00
11830;BME280;5972;42.134;24.718;2023-12-07T08:21:34;99464.09;;;8.49;100.00
11830;BME280;5972;42.134;24.718;2023-12-07T08:24:14;99406.66;;;8.15;100.00
11830;BME280;5972;42.134;24.718;2023-12-07T08:26:45;99459.63;;;8.53;100.00
11830;BME280;5972;42.134;24.718;2023-12-07T08:29:14;99568.59;;;9.26;100.00
11830;BME280;5972;42.134;24.718;2023-12-07T08:31:42;99579.22;;;9.10;100.00
11830;BME280;5972;42.134;24.718;2023-12-07T08:34:21;99555.78;;;8.90;100.00
11830;BME280;5972;42.134;24.718;2023-12-07T08:37:00;99400.13;;;8.16;100.00
11830;BME280;5972;42.134;24.718;2023-12-07T08:39:29;99579.28;;;9.23;100.00
11830;BME280;5972;42.134;24.718;2023-12-07T08:42:15;99526.47;;;9.01;100.00
11830;BME280;5972;42.134;24.718;2023-12-07T08:45:02;99568.72;;;9.42;100.00
11830;BME280;5972;42.134;24.718;2023-12-07T08:47:38;99412.03;;;8.36;100.00
11830;BME280;5972;42.134;24.718;2023-12-07T08:50:25;99404.41;;;8.38;100.00
11830;BME280;5972;42.134;24.718;2023-12-07T08:52:59;99514.19;;;8.91;100.00
11830;BME280;5972;42.134;24.718;2023-12-07T08:55:30;99589.03;;;9.60;100.00
11830;BME280;5972;42.134;24.718;2023-12-07T08:58:02;99407.38;;;8.45;100.00
11830;BME280;5972;42.134;24.718;2023-12-07T09:00:47;99475.25;;;8.80;100.00
11830;BME280;5972;42.134;24.718;2023-12-07T09:03:33;99490.09;;;9.43;100.00
11830;BME280;5972;42.134;24.718;2023-12-07T09:06:01;99552.59;;;10.02;100.00
11830;BME280;5972;42.134;24.718;2023-12-07T09:08:44;99486.94;;;9.78;100.00
11830;BME280;5972;42.134;24.718;2023-12-07T09:11:24;99451.59;;;9.71;100.00
11830;BME280;5972;42.134;24.718;2023-12-07T09:14:21;99572.81;;;10.57;100.00
11830;BME280;5972;42.134;24.718;2023-12-07T09:17:09;99551.72;;;10.63;100.00
11830;BME280;5972;42.134;24.718;2023-12-07T09:19:40;99508.88;;;10.13;100.00
11830;BME280;5972;42.134;24.718;2023-12-07T09:22:22;99399.88;;;9.08;100.00
11830;BME280;5972;42.134;24.718;2023-12-07T09:24:56;99513.72;;;10.07;100.00
11830;BME280;5972;42.134;24.718;2023-12-07T09:27:42;99408.28;;;9.67;100.00
11830;BME280;5972;42.134;24.718;2023-12-07T09:30:19;99506.91;;;10.50;100.00
11830;BME280;5972;42.134;24.718;2023-12-07T09:32:56;99435.34;;;10.07;100.00
11830;BME280;5972;42.134;24.718;2023-12-07T09:35:28;99508.09;;;10.92;100.00
11830;BME280;5972;42.134;24.718;2023-12-07T09:37:57;99540.38;;;11.29;100.00
11830;BME280;5972;42.134;24.718;2023-12-07T09:40:32;99393.34;;;10.37;100.00
11830;BME280;5972;42.134;24.718;2023-12-07T09:42:59;99529.69;;;12.30;100.00
11830;BME280;5972;42.134;24.718;2023-12-07T09:45:35;99503.25;;;11.13;100.00
11830;BME280;5972;42.134;24.718;2023-12-07T09:48:02;99469.31;;;11.66;100.00
11830;BME280;5972;42.134;24.718;2023-12-07T09:50:38;99492.50;;;11.48;100.00
11830;BME280;5972;42.134;24.718;2023-12-07T09:53:08;99540.31;;;11.41;100.00
11830;BME280;5972;42.134;24.718;2023-12-07T09:55:44;99534.72;;;11.34;100.00
11830;BME280;5972;42.134;24.718;2023-12-07T09:58:14;99442.22;;;10.45;100.00
11830;BME280;5972;42.134;24.718;2023-12-07T10:00:43;99494.47;;;10.61;100.00
11830;BME280;5972;42.134;24.718;2023-12-07T10:03:20;99542.53;;;10.79;100.00
11830;BME280;5972;42.134;24.718;2023-12-07T10:05:54;99526.06;;;10.84;100.00
11830;BME280;5972;42.134;24.718;2023-12-07T10:08:26;99524.25;;;10.49;100.00
11830;BME280;5972;42.134;24.718;2023-12-07T10:11:02;99486.78;;;10.35;100.00
11830;BME280;5972;42.134;24.718;2023-12-07T10:13:30;99515.75;;;10.62;100.00
11830;BME280;5972;42.134;24.718;2023-12-07T10:16:12;99516.84;;;10.73;100.00
11830;BME280;5972;42.134;24.718;2023-12-07T10:18:40;99500.41;;;10.66;100.00
11830;BME280;5972;42.134;24.718;2023-12-07T10:21:09;99517.19;;;10.72;100.00
11830;BME280;5972;42.134;24.718;2023-12-07T10:23:36;99513.16;;;10.66;100.00
11830;BME280;5972;42.134;24.718;2023-12-07T10:26:05;99507.25;;;10.76;100.00
11830;BME280;5972;42.134;24.718;2023-12-07T10:28:36;99513.81;;;10.75;100.00
11830;BME280;5972;42.134;24.718;2023-12-07T10:31:04;99507.16;;;10.72;100.00
11830;BME280;5972;42.134;24.718;2023-12-07T10:33:36;99508.16;;;10.80;100.00
11830;BME280;5972;42.134;24.718;2023-12-07T10:36:05;99509.47;;;10.86;100.00
11830;BME280;5972;42.134;24.718;2023-12-07T10:38:32;99498.03;;;10.93;100.00
11830;BME280;5972;42.134;24.718;2023-12-07T10:41:07;99514.34;;;11.24;100.00
11830;BME280;5972;42.134;24.718;2023-12-07T10:43:42;99494.06;;;11.49;100.00
11830;BME280;5972;42.134;24.718;2023-12-07T10:46:14;99505.63;;;11.62;100.00
11830;BME280;5972;42.134;24.718;2023-12-07T10:48:47;99492.75;;;11.43;100.00
11830;BME280;5972;42.134;24.718;2023-12-07T10:51:23;99492.94;;;11.35;100.00
11830;BME280;5972;42.134;24.718;2023-12-07T10:54:02;99504.66;;;11.39;100.00
11830;BME280;5972;42.134;24.718;2023-12-07T10:56:35;99482.56;;;11.37;100.00
11830;BME280;5972;42.134;24.718;2023-12-07T10:59:12;99467.25;;;11.44;100.00
11830;BME280;5972;42.134;24.718;2023-12-07T11:01:40;99452.19;;;11.62;100.00
11830;BME280;5972;42.134;24.718;2023-12-07T11:04:10;99484.19;;;11.88;100.00
11830;BME280;5972;42.134;24.718;2023-12-07T11:06:38;99383.22;;;11.25;100.00
11830;BME280;5972;42.134;24.718;2023-12-07T11:09:10;99491.53;;;11.88;100.00
11830;BME280;5972;42.134;24.718;2023-12-07T11:11:45;99486.81;;;11.69;100.00
11830;BME280;5972;42.134;24.718;2023-12-07T11:14:15;99457.78;;;11.54;100.00
11830;BME280;5972;42.134;24.718;2023-12-07T11:16:45;99447.69;;;11.19;100.00
11830;BME280;5972;42.134;24.718;2023-12-07T11:19:50;99425.41;;;11.10;100.00
11830;BME280;5972;42.134;24.718;2023-12-07T11:22:17;99472.41;;;11.49;100.00
11830;BME280;5972;42.134;24.718;2023-12-07T11:24:55;99480.09;;;11.63;100.00
11830;BME280;5972;42.134;24.718;2023-12-07T11:27:29;99473.03;;;11.58;100.00
11830;BME280;5972;42.134;24.718;2023-12-07T11:29:58;99464.63;;;11.63;100.00
11830;BME280;5972;42.134;24.718;2023-12-07T11:32:26;99469.06;;;11.72;100.00
11830;BME280;5972;42.134;24.718;2023-12-07T11:35:02;99454.75;;;11.55;100.00
11830;BME280;5972;42.134;24.718;2023-12-07T11:38:01;99465.47;;;11.67;100.00
11830;BME280;5972;42.134;24.718;2023-12-07T11:40:44;99459.97;;;11.48;100.00
11830;BME280;5972;42.134;24.718;2023-12-07T11:43:40;99463.75;;;11.44;100.00
11830;BME280;5972;42.134;24.718;2023-12-07T11:46:11;99385.91;;;10.94;100.00
11830;BME280;5972;42.134;24.718;2023-12-07T11:48:48;99478.28;;;11.36;100.00
11830;BME280;5972;42.134;24.718;2023-12-07T11:51:16;99457.38;;;11.36;100.00
11830;BME280;5972;42.134;24.718;2023-12-07T11:53:44;99453.88;;;11.36;100.00
11830;BME280;5972;42.134;24.718;2023-12-07T11:56:11;99455.78;;;11.51;100.00
11830;BME280;5972;42.134;24.718;2023-12-07T11:58:39;99447.31;;;11.52;100.00
11830;BME280;5972;42.134;24.718;2023-12-07T12:01:06;99446.94;;;11.54;100.00
11830;BME280;5972;42.134;24.718;2023-12-07T12:03:33;99453.94;;;11.55;100.00
11830;BME280;5972;42.134;24.718;2023-12-07T12:06:04;99458.69;;;11.58;100.00
11830;BME280;5972;42.134;24.718;2023-12-07T12:08:35;99442.56;;;11.65;100.00
11830;BME280;5972;42.134;24.718;2023-12-07T12:11:02;99449.84;;;11.77;100.00
11830;BME280;5972;42.134;24.718;2023-12-07T12:13:35;99448.00;;;11.81;100.00
11830;BME280;5972;42.134;24.718;2023-12-07T12:16:03;99447.13;;;11.92;100.00
11830;BME280;5972;42.134;24.718;2023-12-07T12:18:31;99441.81;;;11.80;100.00
11830;BME280;5972;42.134;24.718;2023-12-07T12:20:59;99442.06;;;11.75;100.00
11830;BME280;5972;42.134;24.718;2023-12-07T12:23:26;99446.59;;;11.87;100.00
11830;BME280;5972;42.134;24.718;2023-12-07T12:25:56;99435.66;;;11.83;100.00
11830;BME280;5972;42.134;24.718;2023-12-07T12:28:23;99412.69;;;11.61;100.00
11830;BME280;5972;42.134;24.718;2023-12-07T12:30:56;99440.81;;;11.73;100.00
11830;BME280;5972;42.134;24.718;2023-12-07T12:33:23;99437.88;;;11.62;100.00
11830;BME280;5972;42.134;24.718;2023-12-07T12:36:01;99433.81;;;11.37;100.00
11830;BME280;5972;42.134;24.718;2023-12-07T12:38:29;99416.84;;;11.24;100.00
11830;BME280;5972;42.134;24.718;2023-12-07T12:41:00;99436.84;;;11.51;100.00
11830;BME280;5972;42.134;24.718;2023-12-07T12:43:29;99396.91;;;11.16;100.00
11830;BME280;5972;42.134;24.718;2023-12-07T12:45:57;99432.66;;;11.53;100.00
11830;BME280;5972;42.134;24.718;2023-12-07T12:48:25;99436.91;;;11.54;100.00
11830;BME280;5972;42.134;24.718;2023-12-07T12:50:52;99444.00;;;11.59;100.00
11830;BME280;5972;42.134;24.718;2023-12-07T12:53:21;99434.03;;;11.63;100.00
11830;BME280;5972;42.134;24.718;2023-12-07T12:55:48;99431.09;;;11.72;100.00
11830;BME280;5972;42.134;24.718;2023-12-07T12:58:16;99437.00;;;11.74;100.00
11830;BME280;5972;42.134;24.718;2023-12-07T13:00:46;99422.94;;;11.52;100.00
11830;BME280;5972;42.134;24.718;2023-12-07T13:03:14;99426.72;;;11.48;100.00
11830;BME280;5972;42.134;24.718;2023-12-07T13:05:41;99383.56;;;11.08;100.00
11830;BME280;5972;42.134;24.718;2023-12-07T13:08:08;99370.25;;;10.56;100.00
11830;BME280;5972;42.134;24.718;2023-12-07T13:10:35;99433.19;;;10.96;100.00
11830;BME280;5972;42.134;24.718;2023-12-07T13:13:02;99413.06;;;10.81;100.00
11830;BME280;5972;42.134;24.718;2023-12-07T13:15:32;99404.41;;;10.76;100.00